Time;durP1;ratioP1;P1;durP2;ratioP2;P2;SDS_P1;SDS_P2;PMS_P1;PMS_P2;Temp;Humidity;BMP_temperature;BMP_pressure;BME280_temperature;BME280_humidity;BME280_pressure;Samples;Min_cycle;Max_cycle;Signal;HPM_P1;HPM_P2
2022/07/12 00:00:17;0.00;0.00;0.62;0.00;0.00;0.62;2.40;1.70;;;27.00;35.30;;;;;;2229600;62;20384;-68
2022/07/12 00:03:02;0.00;0.00;0.62;0.00;0.00;0.62;1.87;1.40;;;27.00;35.30;;;;;;2230332;62;20391;-65
2022/07/12 00:05:46;0.00;0.00;0.62;0.00;0.00;0.62;1.83;1.60;;;27.00;35.30;;;;;;2229591;62;20388;-67
2022/07/12 00:08:32;0.00;0.00;0.62;0.00;0.00;0.62;2.23;1.70;;;27.00;35.30;;;;;;2229882;62;20429;-64
2022/07/12 00:11:17;0.00;0.00;0.62;0.00;0.00;0.62;1.90;1.50;;;27.00;35.30;;;;;;2229527;62;20703;-66
2022/07/12 00:14:02;0.00;0.00;0.62;0.00;0.00;0.62;2.10;1.63;;;27.00;35.30;;;;;;2229907;62;20493;-66
2022/07/12 00:16:47;0.00;0.00;0.62;0.00;0.00;0.62;2.10;1.77;;;27.00;35.30;;;;;;2230003;62;20409;-64
2022/07/12 00:19:32;0.00;0.00;0.62;0.00;0.00;0.62;2.80;1.70;;;27.00;35.30;;;;;;2229405;62;20369;-65
2022/07/12 00:22:17;0.00;0.00;0.62;0.00;0.00;0.62;2.83;2.10;;;27.00;35.30;;;;;;2229816;62;20438;-67
2022/07/12 00:25:04;0.00;0.00;0.62;0.00;0.00;0.62;2.10;1.70;;;27.00;35.30;;;;;;2230259;62;20410;-68
2022/07/12 00:27:50;0.00;0.00;0.62;0.00;0.00;0.62;2.03;1.50;;;26.90;35.20;;;;;;2228565;62;20362;-68
2022/07/12 00:30:35;0.00;0.00;0.62;0.00;0.00;0.62;1.80;1.40;;;27.00;35.30;;;;;;2229833;62;20429;-64
2022/07/12 00:33:20;0.00;0.00;0.62;0.00;0.00;0.62;2.00;1.80;;;26.90;35.20;;;;;;2229582;62;20404;-68
2022/07/12 00:36:05;0.00;0.00;0.62;0.00;0.00;0.62;1.90;1.67;;;27.00;35.30;;;;;;2229858;62;20369;-65
2022/07/12 00:38:53;0.00;0.00;0.62;0.00;0.00;0.62;2.20;1.80;;;27.00;35.30;;;;;;2229907;62;20369;-64
2022/07/12 00:41:40;0.00;0.00;0.62;0.00;0.00;0.62;5.03;1.63;;;26.90;35.10;;;;;;2229189;62;20727;-65
2022/07/12 00:44:26;0.00;0.00;0.62;0.00;0.00;0.62;2.77;1.90;;;26.90;35.10;;;;;;2229679;62;20372;-66
2022/07/12 00:47:27;0.00;0.00;0.62;0.00;0.00;0.62;2.43;2.03;;;26.90;35.00;;;;;;2230198;62;20418;-66
2022/07/12 00:50:14;0.00;0.00;0.62;0.00;0.00;0.62;2.20;2.00;;;26.80;35.00;;;;;;2229541;62;20452;-65
2022/07/12 00:53:00;0.00;0.00;0.62;0.00;0.00;0.62;2.77;1.70;;;26.80;35.00;;;;;;2229396;62;20368;-64
2022/07/12 00:55:44;0.00;0.00;0.62;0.00;0.00;0.62;1.67;1.40;;;26.80;35.10;;;;;;2229257;62;20365;-63
2022/07/12 00:58:31;0.00;0.00;0.62;0.00;0.00;0.62;3.37;1.70;;;26.80;35.20;;;;;;2229697;62;20369;-63
2022/07/12 01:01:16;0.00;0.00;0.62;0.00;0.00;0.62;1.90;1.57;;;26.80;35.30;;;;;;2229951;62;20720;-63
2022/07/12 01:04:02;0.00;0.00;0.62;0.00;0.00;0.62;3.07;2.23;;;26.70;35.20;;;;;;2228788;62;20453;-66
2022/07/12 01:06:46;0.00;0.00;0.62;0.00;0.00;0.62;1.87;1.40;;;26.70;35.20;;;;;;2229742;62;20815;-64
2022/07/12 01:09:32;0.00;0.00;0.62;0.00;0.00;0.62;2.30;1.87;;;26.70;35.20;;;;;;2229845;62;20427;-65
2022/07/12 01:12:18;0.00;0.00;0.62;0.00;0.00;0.62;1.97;1.40;;;26.70;35.30;;;;;;2229213;62;20374;-64
2022/07/12 01:15:06;0.00;0.00;0.62;0.00;0.00;0.62;1.93;1.57;;;26.80;35.40;;;;;;2229655;62;20661;-64
2022/07/12 01:17:51;0.00;0.00;0.62;0.00;0.00;0.62;1.70;1.43;;;26.70;35.30;;;;;;2229273;62;20445;-65
2022/07/12 01:20:36;0.00;0.00;0.62;0.00;0.00;0.62;2.30;1.80;;;26.80;35.40;;;;;;2229781;62;20393;-64
2022/07/12 01:23:25;0.00;0.00;0.62;0.00;0.00;0.62;1.70;1.50;;;26.80;35.30;;;;;;2229628;62;20703;-66
2022/07/12 01:26:10;0.00;0.00;0.62;0.00;0.00;0.62;3.20;1.97;;;26.70;35.20;;;;;;2229288;62;20434;-66
2022/07/12 01:28:56;0.00;0.00;0.62;0.00;0.00;0.62;2.37;2.07;;;26.70;35.20;;;;;;2229573;62;20417;-64
2022/07/12 01:31:41;0.00;0.00;0.62;0.00;0.00;0.62;2.43;1.93;;;26.60;35.10;;;;;;2229932;62;20397;-64
2022/07/12 01:34:26;0.00;0.00;0.62;0.00;0.00;0.62;2.40;1.70;;;26.60;35.20;;;;;;2229062;62;20377;-65
2022/07/12 01:37:13;0.00;0.00;0.62;0.00;0.00;0.62;2.50;2.30;;;26.60;35.30;;;;;;2229698;62;20442;-64
2022/07/12 01:40:01;0.00;0.00;0.62;0.00;0.00;0.62;2.00;1.70;;;26.50;35.30;;;;;;2229061;62;20393;-65
2022/07/12 01:42:47;0.00;0.00;0.62;0.00;0.00;0.62;2.23;1.77;;;26.50;35.40;;;;;;2229619;62;20753;-66
2022/07/12 01:45:32;0.00;0.00;0.62;0.00;0.00;0.62;2.77;1.80;;;26.40;35.40;;;;;;2229709;62;20365;-64
2022/07/12 01:48:18;0.00;0.00;0.62;0.00;0.00;0.62;2.00;1.60;;;26.40;35.50;;;;;;2229047;62;20372;-64
2022/07/12 01:51:05;0.00;0.00;0.62;0.00;0.00;0.62;2.83;2.03;;;26.40;35.50;;;;;;2229406;62;20446;-66
2022/07/12 01:53:50;0.00;0.00;0.62;0.00;0.00;0.62;2.00;1.50;;;26.30;35.60;;;;;;2230032;62;20369;-64
2022/07/12 01:56:36;0.00;0.00;0.62;0.00;0.00;0.62;2.17;1.83;;;26.30;35.60;;;;;;2228839;62;20410;-63
2022/07/12 01:59:22;0.00;0.00;0.62;0.00;0.00;0.62;2.10;1.63;;;26.30;35.60;;;;;;2229618;62;20373;-63
2022/07/12 02:02:07;0.00;0.00;0.62;0.00;0.00;0.62;2.03;1.83;;;26.30;35.60;;;;;;2229102;62;21010;-63
2022/07/12 02:04:53;0.00;0.00;0.62;0.00;0.00;0.62;4.50;1.80;;;26.30;35.70;;;;;;2229535;62;20589;-64
2022/07/12 02:07:39;0.00;0.00;0.62;0.00;0.00;0.62;3.70;2.37;;;26.30;35.70;;;;;;2229530;62;20429;-63
2022/07/12 02:10:25;0.00;0.00;0.62;0.00;0.00;0.62;1.93;1.50;;;26.30;35.70;;;;;;2229067;62;20388;-64
2022/07/12 02:13:11;0.00;0.00;0.62;0.00;0.00;0.62;5.63;1.87;;;26.30;35.70;;;;;;2229239;62;20409;-67
2022/07/12 02:15:56;0.00;0.00;0.62;0.00;0.00;0.62;2.10;1.57;;;26.30;35.70;;;;;;2229986;62;20402;-64
2022/07/12 02:18:40;0.00;0.00;0.62;0.00;0.00;0.62;1.93;1.73;;;26.30;35.70;;;;;;2228727;62;20425;-65
2022/07/12 02:21:25;0.00;0.00;0.62;0.00;0.00;0.62;2.03;1.80;;;26.30;35.80;;;;;;2230317;62;20700;-67
2022/07/12 02:24:10;0.00;0.00;0.62;0.00;0.00;0.62;2.80;2.53;;;26.30;35.70;;;;;;2230104;62;20368;-65
2022/07/12 02:26:55;0.00;0.00;0.62;0.00;0.00;0.62;2.00;1.77;;;26.30;35.80;;;;;;2230198;62;20477;-66
2022/07/12 02:29:42;0.00;0.00;0.62;0.00;0.00;0.62;2.73;1.60;;;26.30;35.80;;;;;;2229830;62;20373;-64
2022/07/12 02:32:27;0.00;0.00;0.62;0.00;0.00;0.62;2.10;1.87;;;26.30;35.80;;;;;;2229701;62;20808;-63
2022/07/12 02:35:12;0.00;0.00;0.62;0.00;0.00;0.62;2.43;2.23;;;26.30;35.70;;;;;;2230423;62;20461;-67
2022/07/12 02:37:57;0.00;0.00;0.62;0.00;0.00;0.62;2.30;1.87;;;26.30;35.60;;;;;;2230575;62;20737;-66
2022/07/12 02:40:54;0.00;0.00;0.62;0.00;0.00;0.62;2.20;1.90;;;26.30;35.70;;;;;;2229458;62;20610;-63
2022/07/12 02:43:39;0.00;0.00;0.62;0.00;0.00;0.62;1.93;1.70;;;26.30;35.70;;;;;;2230178;62;20373;-64
2022/07/12 02:46:25;0.00;0.00;0.62;0.00;0.00;0.62;2.23;1.80;;;26.30;35.70;;;;;;2229979;62;20416;-64
2022/07/12 02:49:10;0.00;0.00;0.62;0.00;0.00;0.62;2.37;2.07;;;26.30;35.70;;;;;;2229739;62;20604;-64
2022/07/12 02:51:55;0.00;0.00;0.62;0.00;0.00;0.62;1.90;1.70;;;26.30;35.80;;;;;;2230230;62;20377;-67
2022/07/12 02:54:39;0.00;0.00;0.62;0.00;0.00;0.62;1.77;1.50;;;26.30;35.80;;;;;;2229808;62;20745;-63
2022/07/12 02:57:24;0.00;0.00;0.62;0.00;0.00;0.62;2.30;1.40;;;26.30;35.80;;;;;;2230255;62;20368;-66
2022/07/12 03:00:10;0.00;0.00;0.62;0.00;0.00;0.62;1.83;1.50;;;26.30;35.80;;;;;;2230468;62;20425;-64
2022/07/12 03:02:56;0.00;0.00;0.62;0.00;0.00;0.62;1.80;1.40;;;26.30;35.80;;;;;;2229419;62;20790;-64
2022/07/12 03:05:42;0.00;0.00;0.62;0.00;0.00;0.62;1.87;1.50;;;26.30;35.70;;;;;;2230212;62;20389;-66
2022/07/12 03:08:27;0.00;0.00;0.62;0.00;0.00;0.62;2.27;1.37;;;26.30;36.40;;;;;;2229809;62;20416;-65
2022/07/12 03:11:12;0.00;0.00;0.62;0.00;0.00;0.62;1.80;1.50;;;26.30;35.70;;;;;;2230215;62;20384;-65
2022/07/12 03:13:57;0.00;0.00;0.62;0.00;0.00;0.62;2.00;1.70;;;26.40;35.70;;;;;;2230047;62;20410;-65
2022/07/12 03:16:42;0.00;0.00;0.62;0.00;0.00;0.62;2.07;1.87;;;26.40;35.60;;;;;;2229681;62;20595;-65
2022/07/12 03:19:28;0.00;0.00;0.62;0.00;0.00;0.62;1.80;1.43;;;26.40;35.60;;;;;;2230125;62;20396;-65
2022/07/12 03:22:13;0.00;0.00;0.62;0.00;0.00;0.62;2.00;1.80;;;26.40;35.60;;;;;;2230349;62;20381;-66
2022/07/12 03:24:58;0.00;0.00;0.62;0.00;0.00;0.62;1.80;1.50;;;26.40;35.50;;;;;;2229421;62;20369;-67
2022/07/12 03:27:42;0.00;0.00;0.62;0.00;0.00;0.62;1.50;1.30;;;26.40;35.50;;;;;;2229969;62;20442;-66
2022/07/12 03:30:27;0.00;0.00;0.62;0.00;0.00;0.62;1.77;1.53;;;26.40;35.50;;;;;;2230081;62;20632;-64
2022/07/12 03:33:12;0.00;0.00;0.62;0.00;0.00;0.62;2.10;1.60;;;26.50;35.50;;;;;;2229799;62;20729;-64
2022/07/12 03:35:59;0.00;0.00;0.62;0.00;0.00;0.62;2.07;1.63;;;26.50;35.50;;;;;;2229732;62;20729;-65
2022/07/12 03:38:43;0.00;0.00;0.62;0.00;0.00;0.62;2.10;1.77;;;26.50;35.50;;;;;;2229404;62;20592;-66
2022/07/12 03:41:28;0.00;0.00;0.62;0.00;0.00;0.62;2.73;1.60;;;26.50;35.50;;;;;;2230103;62;20709;-67
2022/07/12 03:44:13;0.00;0.00;0.62;0.00;0.00;0.62;3.13;2.10;;;26.50;35.60;;;;;;2229959;62;20373;-66
2022/07/12 03:46:58;0.00;0.00;0.62;0.00;0.00;0.62;1.90;1.53;;;26.50;35.50;;;;;;2229417;62;20389;-64
2022/07/12 03:49:43;0.00;0.00;0.62;0.00;0.00;0.62;2.30;1.87;;;26.50;35.50;;;;;;2229983;62;20722;-62
2022/07/12 03:52:29;0.00;0.00;0.62;0.00;0.00;0.62;1.90;1.43;;;26.50;35.50;;;;;;2230481;62;20366;-63
2022/07/12 03:55:14;0.00;0.00;0.62;0.00;0.00;0.62;2.00;1.50;;;26.50;35.50;;;;;;2229742;62;20377;-66
2022/07/12 03:57:58;0.00;0.00;0.62;0.00;0.00;0.62;1.70;1.60;;;26.50;35.50;;;;;;2229895;62;20764;-64
2022/07/12 04:00:43;0.00;0.00;0.62;0.00;0.00;0.62;1.70;1.30;;;26.60;35.50;;;;;;2229498;62;20437;-64
2022/07/12 04:03:27;0.00;0.00;0.62;0.00;0.00;0.62;2.53;1.70;;;26.60;35.50;;;;;;2229928;62;20434;-65
2022/07/12 04:06:12;0.00;0.00;0.62;0.00;0.00;0.62;2.47;1.90;;;26.60;35.50;;;;;;2230027;62;20472;-66
2022/07/12 04:08:58;0.00;0.00;0.62;0.00;0.00;0.62;2.00;1.60;;;26.60;35.50;;;;;;2229440;62;20381;-63
2022/07/12 04:11:43;0.00;0.00;0.62;0.00;0.00;0.62;2.63;2.07;;;26.60;35.50;;;;;;2229987;62;20506;-68
2022/07/12 04:14:28;0.00;0.00;0.62;0.00;0.00;0.62;2.17;1.60;;;26.60;35.50;;;;;;2230268;62;20372;-65
2022/07/12 04:17:13;0.00;0.00;0.62;0.00;0.00;0.62;3.20;2.07;;;26.60;35.50;;;;;;2229297;62;20408;-68
2022/07/12 04:19:57;0.00;0.00;0.62;0.00;0.00;0.62;1.90;1.70;;;26.60;35.50;;;;;;2229823;62;20658;-67
2022/07/12 04:22:42;0.00;0.00;0.62;0.00;0.00;0.62;2.43;1.90;;;26.60;35.60;;;;;;2229450;62;20390;-66
2022/07/12 04:25:28;0.00;0.00;0.62;0.00;0.00;0.62;2.03;1.83;;;26.60;35.60;;;;;;2230003;62;20754;-66
2022/07/12 04:28:13;0.00;0.00;0.62;0.00;0.00;0.62;1.90;1.40;;;26.60;35.50;;;;;;2230002;62;20369;-67
2022/07/12 04:30:57;0.00;0.00;0.62;0.00;0.00;0.62;2.00;1.50;;;26.60;35.40;;;;;;2228750;62;20444;-68
2022/07/12 04:33:42;0.00;0.00;0.62;0.00;0.00;0.62;2.30;1.63;;;26.60;35.40;;;;;;2229617;62;20372;-65
2022/07/12 04:36:27;0.00;0.00;0.62;0.00;0.00;0.62;2.00;1.70;;;26.60;35.40;;;;;;2230448;62;20385;-70
2022/07/12 04:39:12;0.00;0.00;0.62;0.00;0.00;0.62;3.40;1.70;;;26.60;35.40;;;;;;2229113;62;20372;-69
2022/07/12 04:41:59;0.00;0.00;0.62;0.00;0.00;0.62;2.27;2.00;;;26.60;35.40;;;;;;2229778;62;20629;-66
2022/07/12 04:44:44;0.00;0.00;0.62;0.00;0.00;0.62;2.07;1.80;;;26.60;35.30;;;;;;2229571;62;20373;-65
2022/07/12 04:47:28;0.00;0.00;0.62;0.00;0.00;0.62;2.23;1.90;;;26.60;35.30;;;;;;2229549;62;20405;-68
2022/07/12 04:50:13;0.00;0.00;0.62;0.00;0.00;0.62;2.00;1.80;;;26.60;35.20;;;;;;2229762;62;20409;-66
2022/07/12 04:52:58;0.00;0.00;0.62;0.00;0.00;0.62;2.23;2.03;;;26.60;35.20;;;;;;2229483;62;20590;-66
2022/07/12 04:55:43;0.00;0.00;0.62;0.00;0.00;0.62;2.80;2.27;;;26.70;35.20;;;;;;2230015;62;20365;-67
2022/07/12 04:58:29;0.00;0.00;0.62;0.00;0.00;0.62;2.20;2.00;;;26.70;35.20;;;;;;2229902;62;20369;-70
2022/07/12 05:01:14;0.00;0.00;0.62;0.00;0.00;0.62;3.00;2.17;;;26.70;35.10;;;;;;2228330;62;20480;-70
2022/07/12 05:04:00;0.00;0.00;0.62;0.00;0.00;0.62;2.40;2.20;;;26.70;35.10;;;;;;2229837;62;20378;-64
2022/07/12 05:06:45;0.00;0.00;0.62;0.00;0.00;0.62;2.97;2.70;;;26.60;34.90;;;;;;2229635;62;20434;-68
2022/07/12 05:09:30;0.00;0.00;0.62;0.00;0.00;0.62;2.80;2.43;;;26.70;35.60;;;;;;2229566;62;20748;-64
2022/07/12 05:12:15;0.00;0.00;0.62;0.00;0.00;0.62;3.60;2.20;;;26.70;34.80;;;;;;2230243;62;20369;-65
2022/07/12 05:15:01;0.00;0.00;0.62;0.00;0.00;0.62;3.67;3.20;;;26.70;34.80;;;;;;2229264;62;20354;-68
2022/07/12 05:17:46;0.00;0.00;0.62;0.00;0.00;0.62;3.20;2.80;;;26.70;34.80;;;;;;2229405;62;20373;-69
2022/07/12 05:20:31;0.00;0.00;0.62;0.00;0.00;0.62;3.40;2.70;;;26.70;34.70;;;;;;2230324;62;20420;-65
2022/07/12 05:23:16;0.00;0.00;0.62;0.00;0.00;0.62;3.13;2.83;;;26.60;34.60;;;;;;2229049;62;20372;-68
2022/07/12 05:26:01;0.00;0.00;0.62;0.00;0.00;0.62;3.23;2.93;;;26.70;35.30;;;;;;2230165;62;20412;-68
2022/07/12 05:28:46;0.00;0.00;0.62;0.00;0.00;0.62;3.60;3.30;;;26.70;34.40;;;;;;2229994;62;20478;-66
2022/07/12 05:31:32;0.00;0.00;0.62;0.00;0.00;0.62;4.13;3.03;;;26.60;34.30;;;;;;2229430;62;20623;-67
2022/07/12 05:34:17;0.00;0.00;0.62;0.00;0.00;0.62;6.00;5.40;;;26.60;34.20;;;;;;2230098;62;20377;-68
2022/07/12 05:37:02;0.00;0.00;0.62;0.00;0.00;0.62;4.67;4.27;;;26.60;34.20;;;;;;2229275;62;20606;-70
2022/07/12 05:39:47;0.00;0.00;0.62;0.00;0.00;0.62;4.37;3.27;;;26.60;34.40;;;;;;2229780;62;20440;-66
2022/07/12 05:42:32;0.00;0.00;0.62;0.00;0.00;0.62;4.23;3.73;;;26.60;34.40;;;;;;2229610;62;20417;-64
2022/07/12 05:45:16;0.00;0.00;0.62;0.00;0.00;0.62;4.57;3.50;;;26.60;34.40;;;;;;2229283;62;20623;-64
2022/07/12 05:48:03;0.00;0.00;0.62;0.00;0.00;0.62;4.83;3.50;;;26.60;34.40;;;;;;2229539;62;20726;-63
2022/07/12 05:50:48;0.00;0.00;0.62;0.00;0.00;0.62;4.30;3.03;;;26.60;34.40;;;;;;2229962;62;20494;-64
2022/07/12 05:53:32;0.00;0.00;0.62;0.00;0.00;0.62;4.00;3.07;;;26.60;34.40;;;;;;2228974;62;20393;-65
2022/07/12 05:56:17;0.00;0.00;0.62;0.00;0.00;0.62;3.80;3.17;;;26.60;34.30;;;;;;2229881;62;20368;-64
2022/07/12 05:59:01;0.00;0.00;0.62;0.00;0.00;0.62;3.53;3.00;;;26.60;34.30;;;;;;2229110;62;20576;-62
2022/07/12 06:01:46;0.00;0.00;0.62;0.00;0.00;0.62;2.70;2.50;;;26.60;34.30;;;;;;2229730;62;20715;-67
2022/07/12 06:04:32;0.00;0.00;0.62;0.00;0.00;0.62;2.90;2.60;;;26.50;34.30;;;;;;2229526;62;20405;-67
2022/07/12 06:07:20;0.00;0.00;0.62;0.00;0.00;0.62;2.80;2.50;;;26.50;34.20;;;;;;2228977;62;20392;-67
2022/07/12 06:10:06;0.00;0.00;0.62;0.00;0.00;0.62;3.60;2.90;;;26.50;34.20;;;;;;2230063;62;20453;-64
2022/07/12 06:12:51;0.00;0.00;0.62;0.00;0.00;0.62;3.70;3.30;;;26.50;34.20;;;;;;2229852;62;20625;-66
2022/07/12 06:15:37;0.00;0.00;0.62;0.00;0.00;0.62;2.80;2.33;;;26.50;34.10;;;;;;2229050;62;20410;-65
2022/07/12 06:18:22;0.00;0.00;0.62;0.00;0.00;0.62;3.97;3.20;;;26.50;34.10;;;;;;2229992;62;20376;-66
2022/07/12 06:21:08;0.00;0.00;0.62;0.00;0.00;0.62;4.00;3.03;;;26.40;33.90;;;;;;2229322;62;20389;-65
2022/07/12 06:23:53;0.00;0.00;0.62;0.00;0.00;0.62;2.83;2.60;;;26.40;33.90;;;;;;2229745;62;20360;-64
2022/07/12 06:26:37;0.00;0.00;0.62;0.00;0.00;0.62;3.37;3.07;;;26.40;34.00;;;;;;2229894;62;20644;-65
2022/07/12 06:29:23;0.00;0.00;0.62;0.00;0.00;0.62;2.87;2.53;;;26.40;34.10;;;;;;2228964;62;20383;-65
2022/07/12 06:32:08;0.00;0.00;0.62;0.00;0.00;0.62;3.10;2.77;;;26.40;34.00;;;;;;2229669;62;20418;-65
2022/07/12 06:34:53;0.00;0.00;0.62;0.00;0.00;0.62;3.33;3.00;;;26.30;33.80;;;;;;2229904;62;20380;-66
2022/07/12 06:37:39;0.00;0.00;0.62;0.00;0.00;0.62;3.43;3.13;;;26.30;33.50;;;;;;2228961;62;20950;-66
2022/07/12 06:40:24;0.00;0.00;0.62;0.00;0.00;0.62;3.30;3.00;;;26.30;33.50;;;;;;2229527;62;20631;-65
2022/07/12 06:43:10;0.00;0.00;0.62;0.00;0.00;0.62;3.93;2.80;;;26.30;33.50;;;;;;2229046;62;20585;-63
2022/07/12 06:45:55;0.00;0.00;0.62;0.00;0.00;0.62;3.07;2.77;;;26.30;33.60;;;;;;2229429;62;20373;-67
2022/07/12 06:48:39;0.00;0.00;0.62;0.00;0.00;0.62;3.43;3.13;;;26.30;33.80;;;;;;2229839;62;20676;-66
2022/07/12 06:51:24;0.00;0.00;0.62;0.00;0.00;0.62;3.23;2.93;;;26.30;33.90;;;;;;2228969;62;20478;-65
2022/07/12 06:54:10;0.00;0.00;0.62;0.00;0.00;0.62;2.73;2.53;;;26.20;33.80;;;;;;2229639;62;20698;-63
2022/07/12 06:56:55;0.00;0.00;0.62;0.00;0.00;0.62;3.30;3.00;;;26.20;33.80;;;;;;2229919;62;20369;-66
2022/07/12 06:59:39;0.00;0.00;0.62;0.00;0.00;0.62;3.07;2.77;;;26.20;33.70;;;;;;2228793;62;20578;-67
2022/07/12 07:02:24;0.00;0.00;0.62;0.00;0.00;0.62;3.10;2.80;;;26.20;33.80;;;;;;2229467;62;20365;-66
2022/07/12 07:05:11;0.00;0.00;0.62;0.00;0.00;0.62;3.37;3.00;;;26.20;33.80;;;;;;2229642;62;20762;-66
2022/07/12 07:07:56;0.00;0.00;0.62;0.00;0.00;0.62;3.53;3.23;;;26.20;33.80;;;;;;2229939;62;20466;-66
2022/07/12 07:10:42;0.00;0.00;0.62;0.00;0.00;0.62;3.20;2.90;;;26.20;33.80;;;;;;2230501;62;20393;-65
2022/07/12 07:13:27;0.00;0.00;0.62;0.00;0.00;0.62;3.47;2.83;;;26.20;33.70;;;;;;2229809;62;20365;-64
2022/07/12 07:16:13;0.00;0.00;0.62;0.00;0.00;0.62;3.60;2.90;;;26.20;33.60;;;;;;2230255;62;20626;-63
2022/07/12 07:18:58;0.00;0.00;0.62;0.00;0.00;0.62;3.43;3.13;;;26.20;33.50;;;;;;2230367;62;20410;-63
2022/07/12 07:21:42;0.00;0.00;0.62;0.00;0.00;0.62;3.47;3.17;;;26.20;33.60;;;;;;2229202;62;20669;-68
2022/07/12 07:24:27;0.00;0.00;0.62;0.00;0.00;0.62;2.97;2.67;;;26.20;33.60;;;;;;2230532;62;20361;-66
2022/07/12 07:27:13;0.00;0.00;0.62;0.00;0.00;0.62;2.73;2.50;;;26.10;33.20;;;;;;2230352;62;20430;-65
2022/07/12 07:33:01;0.00;0.00;0.62;0.00;0.00;0.62;3.10;2.80;;;26.10;33.30;;;;;;2230408;62;20368;-66
2022/07/12 07:35:47;0.00;0.00;0.62;0.00;0.00;0.62;3.17;2.67;;;26.00;33.10;;;;;;2229578;62;20384;-66
2022/07/12 07:38:31;0.00;0.00;0.62;0.00;0.00;0.62;2.90;2.60;;;26.00;33.20;;;;;;2230213;62;20368;-67
2022/07/12 07:41:16;0.00;0.00;0.62;0.00;0.00;0.62;3.07;2.77;;;26.00;33.30;;;;;;2230383;62;20429;-64
2022/07/12 07:44:02;0.00;0.00;0.62;0.00;0.00;0.62;3.70;3.40;;;26.00;33.20;;;;;;2229297;62;20729;-63
2022/07/12 07:46:47;0.00;0.00;0.62;0.00;0.00;0.62;3.40;3.10;;;25.90;33.00;;;;;;2230307;62;20421;-67
2022/07/12 07:49:32;0.00;0.00;0.62;0.00;0.00;0.62;3.73;3.20;;;25.90;33.00;;;;;;2230053;62;20405;-66
2022/07/12 07:52:16;0.00;0.00;0.62;0.00;0.00;0.62;3.70;3.40;;;25.90;33.10;;;;;;2229938;62;20360;-64
2022/07/12 07:55:01;0.00;0.00;0.62;0.00;0.00;0.62;3.87;3.23;;;25.80;33.00;;;;;;2230219;62;20397;-66
2022/07/12 07:57:47;0.00;0.00;0.62;0.00;0.00;0.62;3.90;3.13;;;25.80;33.10;;;;;;2229459;62;20414;-65
2022/07/12 08:00:33;0.00;0.00;0.62;0.00;0.00;0.62;4.27;3.67;;;25.70;33.10;;;;;;2230037;62;20389;-66
2022/07/12 08:03:18;0.00;0.00;0.62;0.00;0.00;0.62;3.13;2.83;;;25.70;33.20;;;;;;2230234;62;20372;-63
2022/07/12 08:06:03;0.00;0.00;0.62;0.00;0.00;0.62;3.27;2.97;;;25.70;33.40;;;;;;2229318;62;20409;-65
2022/07/12 08:08:48;0.00;0.00;0.62;0.00;0.00;0.62;3.97;3.57;;;25.70;33.60;;;;;;2230273;62;20368;-66
2022/07/12 08:11:33;0.00;0.00;0.62;0.00;0.00;0.62;3.30;3.00;;;25.60;33.50;;;;;;2230200;62;20434;-66
2022/07/12 08:14:18;0.00;0.00;0.62;0.00;0.00;0.62;3.60;3.17;;;25.60;33.40;;;;;;2229660;62;20400;-63
2022/07/12 08:17:04;0.00;0.00;0.62;0.00;0.00;0.62;3.13;2.83;;;25.60;33.40;;;;;;2228558;62;20396;-64
2022/07/12 08:19:49;0.00;0.00;0.62;0.00;0.00;0.62;3.63;3.33;;;25.60;33.50;;;;;;2229369;62;20391;-66
2022/07/12 08:22:42;0.00;0.00;0.62;0.00;0.00;0.62;3.90;3.43;;;25.60;33.60;;;;;;2229988;62;20373;-64
2022/07/12 08:25:27;0.00;0.00;0.62;0.00;0.00;0.62;3.47;3.17;;;25.50;33.60;;;;;;2230325;62;20657;-66
2022/07/12 08:28:11;0.00;0.00;0.62;0.00;0.00;0.62;3.30;3.00;;;25.50;33.60;;;;;;2229164;62;20410;-63
2022/07/12 08:30:57;0.00;0.00;0.62;0.00;0.00;0.62;4.17;3.30;;;25.50;33.50;;;;;;2230159;62;20397;-64
2022/07/12 08:33:43;0.00;0.00;0.62;0.00;0.00;0.62;3.00;2.70;;;25.50;33.60;;;;;;2230349;62;20410;-64
2022/07/12 08:36:28;0.00;0.00;0.62;0.00;0.00;0.62;3.93;3.63;;;25.40;33.60;;;;;;2229501;62;20594;-66
2022/07/12 08:39:13;0.00;0.00;0.62;0.00;0.00;0.62;3.53;3.20;;;25.40;34.40;;;;;;2230155;62;20443;-64
2022/07/12 08:41:58;0.00;0.00;0.62;0.00;0.00;0.62;2.60;2.40;;;25.40;33.80;;;;;;2229449;62;20368;-66
2022/07/12 08:44:42;0.00;0.00;0.62;0.00;0.00;0.62;2.93;2.63;;;25.50;33.90;;;;;;2229930;62;20426;-64
2022/07/12 08:47:27;0.00;0.00;0.62;0.00;0.00;0.62;3.87;3.47;;;25.40;33.90;;;;;;2230166;62;20417;-66
2022/07/12 08:50:19;0.00;0.00;0.62;0.00;0.00;0.62;3.27;2.97;;;25.40;34.00;;;;;;2229244;62;20393;-67
2022/07/12 08:53:11;0.00;0.00;0.62;0.00;0.00;0.62;3.83;3.53;;;25.50;34.10;;;;;;2230214;62;20405;-66
2022/07/12 08:55:57;0.00;0.00;0.62;0.00;0.00;0.62;3.50;3.20;;;25.50;34.00;;;;;;2229856;62;20410;-65
2022/07/12 08:58:42;0.00;0.00;0.62;0.00;0.00;0.62;4.70;3.50;;;25.50;34.00;;;;;;2229626;62;20373;-64
2022/07/12 09:01:40;0.00;0.00;0.62;0.00;0.00;0.62;3.23;2.93;;;25.50;33.90;;;;;;2230209;62;20400;-64
2022/07/12 09:04:27;0.00;0.00;0.62;0.00;0.00;0.62;3.50;3.07;;;25.50;33.90;;;;;;2229266;62;20480;-64
2022/07/12 09:07:16;0.00;0.00;0.62;0.00;0.00;0.62;3.17;2.80;;;25.50;33.60;;;;;;2229877;62;20465;-66
2022/07/12 09:10:04;0.00;0.00;0.62;0.00;0.00;0.62;2.57;2.37;;;25.50;33.60;;;;;;2230032;62;20777;-66
2022/07/12 09:12:49;0.00;0.00;0.62;0.00;0.00;0.62;3.60;3.30;;;25.50;33.50;;;;;;2228972;62;20582;-65
2022/07/12 09:15:34;0.00;0.00;0.62;0.00;0.00;0.62;3.30;3.00;;;25.50;33.60;;;;;;2230290;62;20418;-66
2022/07/12 09:18:28;0.00;0.00;0.62;0.00;0.00;0.62;3.30;3.00;;;25.50;33.60;;;;;;2229838;62;20364;-65
2022/07/12 09:21:24;0.00;0.00;0.62;0.00;0.00;0.62;3.97;3.57;;;25.50;33.60;;;;;;2229735;62;20394;-66
2022/07/12 09:24:10;0.00;0.00;0.62;0.00;0.00;0.62;3.30;3.00;;;25.50;33.60;;;;;;2230186;62;20459;-66
2022/07/12 09:27:00;0.00;0.00;0.62;0.00;0.00;0.62;3.43;2.60;;;25.50;33.60;;;;;;2229165;62;20396;-65
2022/07/12 09:29:49;0.00;0.00;0.62;0.00;0.00;0.62;4.37;3.30;;;25.50;33.60;;;;;;2229753;62;20574;-65
2022/07/12 09:38:52;0.00;0.00;0.62;0.00;0.00;0.62;3.80;3.50;;;25.50;33.70;;;;;;2230078;62;20640;-65
2022/07/12 09:41:38;0.00;0.00;0.62;0.00;0.00;0.62;3.60;3.30;;;25.60;33.70;;;;;;2229196;62;20454;-66
2022/07/12 09:44:26;0.00;0.00;0.62;0.00;0.00;0.62;3.53;3.23;;;25.50;33.60;;;;;;2232152;62;20422;-64
2022/07/12 09:47:13;0.00;0.00;0.62;0.00;0.00;0.62;3.50;3.20;;;25.50;33.60;;;;;;2230014;62;20417;-64
2022/07/12 09:49:57;0.00;0.00;0.62;0.00;0.00;0.62;2.97;2.77;;;25.60;33.70;;;;;;2228837;62;20389;-64
2022/07/12 09:52:45;0.00;0.00;0.62;0.00;0.00;0.62;3.13;2.87;;;25.60;33.70;;;;;;2230030;62;20369;-64
2022/07/12 09:55:34;0.00;0.00;0.62;0.00;0.00;0.62;3.70;3.27;;;25.60;33.70;;;;;;2229632;62;20598;-66
2022/07/12 09:58:35;0.00;0.00;0.62;0.00;0.00;0.62;3.50;3.20;;;25.70;33.80;;;;;;2229653;62;20369;-66
2022/07/12 10:01:21;0.00;0.00;0.62;0.00;0.00;0.62;4.30;3.30;;;25.70;33.70;;;;;;2230026;62;20405;-64
2022/07/12 10:04:06;0.00;0.00;0.62;0.00;0.00;0.62;3.77;3.47;;;25.70;33.60;;;;;;2229402;62;20373;-66
2022/07/12 10:06:51;0.00;0.00;0.62;0.00;0.00;0.62;3.60;3.30;;;25.70;33.50;;;;;;2229997;62;20432;-64
2022/07/12 10:09:36;0.00;0.00;0.62;0.00;0.00;0.62;4.60;4.03;;;25.70;33.20;;;;;;2229938;62;20369;-63
2022/07/12 10:12:23;0.00;0.00;0.62;0.00;0.00;0.62;4.30;4.00;;;25.70;33.20;;;;;;2228876;62;20610;-66
2022/07/12 10:15:16;0.00;0.00;0.62;0.00;0.00;0.62;4.00;3.70;;;25.80;33.20;;;;;;2229947;62;20409;-67
2022/07/12 10:18:02;0.00;0.00;0.62;0.00;0.00;0.62;5.30;3.17;;;25.80;33.20;;;;;;2229029;62;20433;-67
2022/07/12 10:20:49;0.00;0.00;0.62;0.00;0.00;0.62;4.00;3.10;;;25.80;33.20;;;;;;2229500;62;20385;-63
2022/07/12 10:23:36;0.00;0.00;0.62;0.00;0.00;0.62;4.27;3.90;;;25.80;33.20;;;;;;2230104;62;20465;-64
2022/07/12 10:26:37;0.00;0.00;0.62;0.00;0.00;0.62;3.50;3.20;;;25.80;33.20;;;;;;2229079;62;20405;-67
2022/07/12 10:29:22;0.00;0.00;0.62;0.00;0.00;0.62;3.90;3.60;;;25.90;33.20;;;;;;2229898;62;20401;-63
2022/07/12 10:32:25;0.00;0.00;0.62;0.00;0.00;0.62;3.27;2.97;;;25.90;33.20;;;;;;2229867;62;20456;-66
2022/07/12 10:35:15;0.00;0.00;0.62;0.00;0.00;0.62;3.30;3.00;;;25.90;33.20;;;;;;2229499;62;20388;-66
2022/07/12 10:38:20;0.00;0.00;0.62;0.00;0.00;0.62;4.10;3.70;;;26.00;33.30;;;;;;2229959;62;20365;-66
2022/07/12 10:41:19;0.00;0.00;0.62;0.00;0.00;0.62;3.43;3.13;;;26.00;33.30;;;;;;2229246;62;20752;-67
2022/07/12 10:44:04;0.00;0.00;0.62;0.00;0.00;0.62;4.17;3.77;;;26.00;33.30;;;;;;2230720;62;20430;-66
2022/07/12 10:47:00;0.00;0.00;0.62;0.00;0.00;0.62;3.80;3.50;;;26.00;33.10;;;;;;2230601;62;20416;-67
2022/07/12 10:49:52;0.00;0.00;0.62;0.00;0.00;0.62;4.20;3.90;;;26.00;33.00;;;;;;2229955;62;20430;-65
2022/07/12 10:52:37;0.00;0.00;0.62;0.00;0.00;0.62;4.27;3.97;;;26.10;33.00;;;;;;2230512;62;20385;-67
2022/07/12 10:55:21;0.00;0.00;0.62;0.00;0.00;0.62;4.33;3.93;;;26.10;33.00;;;;;;2229773;62;20396;-66
2022/07/12 10:58:06;0.00;0.00;0.62;0.00;0.00;0.62;4.30;4.00;;;26.10;32.90;;;;;;2230096;62;20365;-67
2022/07/12 11:00:51;0.00;0.00;0.62;0.00;0.00;0.62;4.43;4.03;;;26.20;32.90;;;;;;2230616;62;20434;-65
2022/07/12 11:03:43;0.00;0.00;0.62;0.00;0.00;0.62;4.10;3.80;;;26.20;32.80;;;;;;2229614;62;20364;-65